createdAt,value
2023-12-21T00:01:22.976Z,7.76
2023-12-21T00:03:50.689Z,7.76
2023-12-21T00:06:18.311Z,7.76
2023-12-21T00:08:45.975Z,7.76
2023-12-21T00:11:13.513Z,7.77
2023-12-21T00:13:41.483Z,7.79
2023-12-21T00:16:09.160Z,7.82
2023-12-21T00:18:36.766Z,7.85
2023-12-21T00:21:04.529Z,7.85
2023-12-21T00:23:32.370Z,7.86
2023-12-21T00:25:59.885Z,7.86
2023-12-21T00:28:27.515Z,7.86
2023-12-21T00:30:55.314Z,7.86
2023-12-21T00:33:22.951Z,7.87
2023-12-21T00:35:50.523Z,7.89
2023-12-21T00:38:18.101Z,7.89
2023-12-21T00:40:45.620Z,7.89
2023-12-21T00:43:13.275Z,7.91
2023-12-21T00:45:40.899Z,7.93
2023-12-21T00:48:08.963Z,7.96
2023-12-21T00:50:36.614Z,8.00
2023-12-21T00:53:04.312Z,8.01
2023-12-21T00:55:31.935Z,8.04
2023-12-21T00:58:00.000Z,8.05
2023-12-21T01:00:27.639Z,8.08
2023-12-21T01:02:55.843Z,8.10
2023-12-21T01:05:23.414Z,8.13
2023-12-21T01:07:50.976Z,8.16
2023-12-21T01:10:18.628Z,8.19
2023-12-21T01:12:46.250Z,8.22
2023-12-21T01:15:13.931Z,8.27
2023-12-21T01:17:41.582Z,8.29
2023-12-21T01:20:09.945Z,8.31
2023-12-21T01:22:37.859Z,8.33
2023-12-21T01:25:05.934Z,8.36
2023-12-21T01:27:33.557Z,8.38
2023-12-21T01:30:01.142Z,8.40
2023-12-21T01:32:28.777Z,8.41
2023-12-21T01:34:56.469Z,8.43
2023-12-21T01:37:24.192Z,8.44
2023-12-21T01:39:51.778Z,8.44
2023-12-21T01:42:19.319Z,8.45
2023-12-21T01:44:46.967Z,8.45
2023-12-21T01:47:14.513Z,8.44
2023-12-21T01:49:42.197Z,8.44
2023-12-21T01:52:10.128Z,8.43
2023-12-21T01:54:37.708Z,8.45
2023-12-21T01:57:05.400Z,8.45
2023-12-21T01:59:33.029Z,8.44
2023-12-21T02:02:03.544Z,8.46
2023-12-21T02:04:31.265Z,8.48
2023-12-21T02:06:59.117Z,8.49
2023-12-21T02:09:26.747Z,8.49
2023-12-21T02:11:54.296Z,8.49
2023-12-21T02:14:22.432Z,8.50
2023-12-21T02:16:57.460Z,8.51
2023-12-21T02:19:25.135Z,8.51
2023-12-21T02:21:55.714Z,8.50
2023-12-21T02:24:23.282Z,8.51
2023-12-21T02:26:50.889Z,8.52
2023-12-21T02:29:18.397Z,8.53
2023-12-21T02:31:46.018Z,8.55
2023-12-21T02:34:13.749Z,8.56
2023-12-21T02:36:41.365Z,8.57
2023-12-21T02:39:08.992Z,8.58
2023-12-21T02:41:36.930Z,8.61
2023-12-21T02:44:04.778Z,8.64
2023-12-21T02:46:33.420Z,8.65
2023-12-21T02:49:01.431Z,8.68
2023-12-21T02:51:29.089Z,8.69
2023-12-21T02:53:56.738Z,8.70
2023-12-21T02:56:24.447Z,8.72
2023-12-21T02:58:51.987Z,8.71
2023-12-21T03:01:19.555Z,8.70
2023-12-21T03:03:47.420Z,8.70
2023-12-21T03:06:15.055Z,8.71
2023-12-21T03:08:42.611Z,8.72
2023-12-21T03:11:10.292Z,8.71
2023-12-21T03:13:37.959Z,8.68
2023-12-21T03:16:09.097Z,8.67
2023-12-21T03:18:38.070Z,8.68
2023-12-21T03:21:05.746Z,8.67
2023-12-21T03:23:35.495Z,8.68
2023-12-21T03:26:03.149Z,8.68
2023-12-21T03:28:30.771Z,8.68
2023-12-21T03:30:58.485Z,8.68
2023-12-21T03:33:26.209Z,8.67
2023-12-21T03:35:53.830Z,8.65
2023-12-21T03:38:21.570Z,8.63
2023-12-21T03:40:49.196Z,8.62
2023-12-21T03:43:16.853Z,8.61
2023-12-21T03:45:44.394Z,8.61
2023-12-21T03:48:12.114Z,8.61
2023-12-21T03:50:39.799Z,8.61
2023-12-21T03:53:07.469Z,8.62
2023-12-21T03:55:35.392Z,8.60
2023-12-21T03:58:03.121Z,8.58
2023-12-21T04:00:30.716Z,8.56
2023-12-21T04:02:58.374Z,8.56
2023-12-21T04:05:26.041Z,8.53
2023-12-21T04:07:53.587Z,8.49
2023-12-21T04:10:21.378Z,8.48
2023-12-21T04:12:49.523Z,8.48
2023-12-21T04:15:17.878Z,8.47
2023-12-21T04:17:45.604Z,8.48
2023-12-21T04:20:13.328Z,8.46
2023-12-21T04:22:40.873Z,8.45
2023-12-21T04:25:09.088Z,8.46
2023-12-21T04:27:36.650Z,8.45
2023-12-21T04:30:04.901Z,8.46
2023-12-21T04:32:32.614Z,8.46
2023-12-21T04:35:00.336Z,8.41
2023-12-21T04:37:27.979Z,8.34
2023-12-21T04:39:55.619Z,8.38
2023-12-21T04:42:23.151Z,8.38
2023-12-21T04:44:50.739Z,8.38
2023-12-21T04:47:23.194Z,8.38
2023-12-21T04:49:52.931Z,8.37
2023-12-21T04:52:20.830Z,8.38
2023-12-21T04:54:48.404Z,8.39
2023-12-21T04:57:17.426Z,8.39
2023-12-21T04:59:46.391Z,8.37
2023-12-21T05:02:14.036Z,8.36
2023-12-21T05:04:41.717Z,8.35
2023-12-21T05:07:12.324Z,8.35
2023-12-21T05:09:39.924Z,8.34
2023-12-21T05:12:07.716Z,8.36
2023-12-21T05:14:35.476Z,8.34
2023-12-21T05:17:03.013Z,8.34
2023-12-21T05:19:30.615Z,8.35
2023-12-21T05:21:58.513Z,8.36
2023-12-21T05:24:26.173Z,8.35
2023-12-21T05:26:53.787Z,8.34
2023-12-21T05:29:21.359Z,8.32
2023-12-21T05:31:49.095Z,8.34
2023-12-21T05:34:16.900Z,8.35
2023-12-21T05:36:44.985Z,8.34
2023-12-21T05:39:17.977Z,8.35
2023-12-21T05:41:46.795Z,8.38
2023-12-21T05:44:14.428Z,8.40
2023-12-21T05:46:44.158Z,8.41
2023-12-21T05:49:12.162Z,8.41
2023-12-21T05:51:40.299Z,8.40
2023-12-21T05:54:07.949Z,8.40
2023-12-21T05:56:38.700Z,8.41
2023-12-21T05:59:06.259Z,8.41
2023-12-21T06:01:34.763Z,8.42
2023-12-21T06:04:02.730Z,8.42
2023-12-21T06:06:30.488Z,8.43
2023-12-21T06:08:58.049Z,8.47
2023-12-21T06:11:25.836Z,8.46
2023-12-21T06:13:53.385Z,8.49
2023-12-21T06:16:21.017Z,8.51
2023-12-21T06:18:50.144Z,8.51
2023-12-21T06:21:18.094Z,8.53
2023-12-21T06:23:45.694Z,8.54
2023-12-21T06:26:14.061Z,8.56
2023-12-21T06:28:42.162Z,8.54
2023-12-21T06:31:15.280Z,8.56
2023-12-21T06:33:42.965Z,8.58
2023-12-21T06:36:10.644Z,8.59
2023-12-21T06:38:38.232Z,8.60
2023-12-21T06:41:05.794Z,8.61
2023-12-21T06:43:33.372Z,8.60
2023-12-21T06:46:03.102Z,8.62
2023-12-21T06:48:30.803Z,8.64
2023-12-21T06:50:58.660Z,8.68
2023-12-21T06:53:26.262Z,8.70
2023-12-21T06:56:03.630Z,8.74
2023-12-21T06:58:41.503Z,8.79
2023-12-21T07:01:10.140Z,8.84
2023-12-21T07:03:37.749Z,8.86
2023-12-21T07:06:05.572Z,8.90
2023-12-21T07:08:33.273Z,8.91
2023-12-21T07:11:00.916Z,8.93
2023-12-21T07:13:28.541Z,8.95
2023-12-21T07:15:56.182Z,8.97
2023-12-21T07:18:23.917Z,8.98
2023-12-21T07:20:51.701Z,8.97
2023-12-21T07:23:19.387Z,9.00
2023-12-21T07:25:46.980Z,9.04
2023-12-21T07:28:17.329Z,9.09
2023-12-21T07:30:45.018Z,9.09
2023-12-21T07:33:12.787Z,9.09
2023-12-21T07:35:40.604Z,9.19
2023-12-21T07:38:08.257Z,9.30
2023-12-21T07:40:35.851Z,9.38
2023-12-21T07:43:03.787Z,9.38
2023-12-21T07:45:31.599Z,9.40
2023-12-21T07:47:59.226Z,9.42
2023-12-21T07:50:27.367Z,9.44
2023-12-21T07:52:57.827Z,9.46
2023-12-21T07:55:25.552Z,9.48
2023-12-21T07:57:53.374Z,9.52
2023-12-21T08:00:21.122Z,9.57
2023-12-21T08:02:49.697Z,9.64
2023-12-21T08:05:17.884Z,9.75
2023-12-21T08:07:45.658Z,9.88
2023-12-21T08:10:13.277Z,10.04
2023-12-21T08:12:40.872Z,10.20
2023-12-21T08:15:11.344Z,10.29
2023-12-21T08:17:40.341Z,10.29
2023-12-21T08:20:08.505Z,10.26
2023-12-21T08:22:36.204Z,10.22
2023-12-21T08:25:04.078Z,10.15
2023-12-21T08:27:31.803Z,10.08
2023-12-21T08:30:01.308Z,10.05
2023-12-21T08:32:29.179Z,10.05
2023-12-21T08:34:56.880Z,10.07
2023-12-21T08:37:24.546Z,10.14
2023-12-21T08:39:52.262Z,10.19
2023-12-21T08:42:20.153Z,10.19
2023-12-21T08:44:49.868Z,10.12
2023-12-21T08:47:17.593Z,10.06
2023-12-21T08:49:45.356Z,10.05
2023-12-21T08:52:12.941Z,10.00
2023-12-21T08:54:42.305Z,9.95
2023-12-21T08:57:12.770Z,9.91
2023-12-21T08:59:40.499Z,9.89
2023-12-21T09:02:08.432Z,9.84
2023-12-21T09:04:36.110Z,9.79
2023-12-21T09:07:03.931Z,9.78
2023-12-21T09:09:33.127Z,9.76
2023-12-21T09:12:00.716Z,9.71
2023-12-21T09:14:28.468Z,9.68
2023-12-21T09:16:56.187Z,9.70
2023-12-21T09:19:26.947Z,9.66
2023-12-21T09:21:54.499Z,9.60
2023-12-21T09:24:22.098Z,9.57
2023-12-21T09:26:49.660Z,9.56
2023-12-21T09:29:17.245Z,9.52
2023-12-21T09:31:44.995Z,9.49
2023-12-21T09:34:12.775Z,9.48
2023-12-21T09:36:40.856Z,9.48
2023-12-21T09:39:08.482Z,9.49
2023-12-21T09:41:37.651Z,9.53
2023-12-21T09:44:12.894Z,9.60
2023-12-21T09:46:40.718Z,9.66
2023-12-21T09:49:08.606Z,9.69
2023-12-21T09:51:36.659Z,9.69
2023-12-21T09:54:05.767Z,9.68
2023-12-21T09:56:33.665Z,9.66
2023-12-21T09:59:02.193Z,9.67
2023-12-21T10:01:30.258Z,9.74
2023-12-21T10:04:00.777Z,9.79
2023-12-21T10:06:28.523Z,9.86
2023-12-21T10:08:56.197Z,9.85
2023-12-21T10:11:23.759Z,9.82
2023-12-21T10:13:51.688Z,9.82
2023-12-21T10:16:19.954Z,9.76
2023-12-21T10:18:48.178Z,9.70
2023-12-21T10:21:15.751Z,9.65
2023-12-21T10:23:43.898Z,9.62
2023-12-21T10:26:11.554Z,9.62
2023-12-21T10:28:39.312Z,9.63
2023-12-21T10:31:07.725Z,9.65
2023-12-21T10:33:36.474Z,9.68
2023-12-21T10:36:04.853Z,9.72
2023-12-21T10:38:33.402Z,9.77
2023-12-21T10:41:07.031Z,9.81
2023-12-21T10:43:35.846Z,9.82
2023-12-21T10:46:04.745Z,9.82
2023-12-21T10:48:33.319Z,9.84
2023-12-21T10:51:01.078Z,9.83
2023-12-21T10:53:28.672Z,9.83
2023-12-21T10:55:56.582Z,9.85
2023-12-21T10:58:25.481Z,9.85
2023-12-21T11:00:54.540Z,9.83
2023-12-21T11:03:22.155Z,9.80
2023-12-21T11:05:50.013Z,9.77
2023-12-21T11:08:17.741Z,9.73
2023-12-21T11:10:45.624Z,9.71
2023-12-21T11:13:13.393Z,9.72
2023-12-21T11:15:41.021Z,9.72
2023-12-21T11:18:11.088Z,9.70
2023-12-21T11:20:48.422Z,9.71
2023-12-21T11:23:18.309Z,9.73
2023-12-21T11:25:55.524Z,9.75
2023-12-21T11:28:29.023Z,9.74
2023-12-21T11:30:56.742Z,9.74
2023-12-21T11:33:31.577Z,9.76
2023-12-21T11:35:59.532Z,9.78
2023-12-21T11:38:53.640Z,9.81
2023-12-21T11:41:25.761Z,9.80
2023-12-21T11:44:06.096Z,9.80
2023-12-21T11:46:35.227Z,9.79
2023-12-21T11:49:04.040Z,9.78
2023-12-21T11:51:32.889Z,9.74
2023-12-21T11:54:07.051Z,9.73
2023-12-21T11:56:36.299Z,9.71
2023-12-21T11:59:05.355Z,9.70
2023-12-21T12:01:33.389Z,9.72
2023-12-21T12:04:01.073Z,9.72
2023-12-21T12:06:29.951Z,9.75
2023-12-21T12:08:57.781Z,9.75
2023-12-21T12:11:26.958Z,9.76
2023-12-21T12:13:55.219Z,9.75
2023-12-21T12:16:22.966Z,9.74
2023-12-21T12:18:50.997Z,9.74
2023-12-21T12:21:18.718Z,9.73
2023-12-21T12:23:47.974Z,9.74
2023-12-21T12:26:16.682Z,9.73
2023-12-21T12:28:47.815Z,9.72
2023-12-21T12:31:15.440Z,9.70
2023-12-21T12:33:43.171Z,9.68
2023-12-21T12:36:11.098Z,9.65
2023-12-21T12:38:38.819Z,9.62
2023-12-21T12:41:07.610Z,9.60
2023-12-21T12:43:36.478Z,9.57
2023-12-21T12:46:06.263Z,9.57
2023-12-21T12:48:34.261Z,9.57
2023-12-21T12:51:01.809Z,9.58
2023-12-21T12:53:30.999Z,9.58
2023-12-21T12:55:58.924Z,9.57
2023-12-21T13:00:59.360Z,9.54
2023-12-21T13:03:27.069Z,9.54
2023-12-21T13:06:04.599Z,9.51
2023-12-21T13:08:36.010Z,9.50
2023-12-21T13:11:04.527Z,9.50
2023-12-21T13:13:32.273Z,9.52
2023-12-21T13:16:01.252Z,9.49
2023-12-21T13:18:28.925Z,9.47
2023-12-21T13:20:56.537Z,9.48
2023-12-21T13:23:24.740Z,9.48
2023-12-21T13:25:55.423Z,9.47
2023-12-21T13:28:23.967Z,9.50
2023-12-21T13:31:16.506Z,9.54
2023-12-21T13:33:44.406Z,9.57
2023-12-21T13:36:12.285Z,9.57
2023-12-21T13:38:40.127Z,9.58
2023-12-21T13:41:10.299Z,9.60
2023-12-21T13:43:38.381Z,9.57
2023-12-21T13:46:06.437Z,9.58
2023-12-21T13:48:34.318Z,9.56
2023-12-21T13:51:02.019Z,9.55
2023-12-21T13:53:29.749Z,9.52
2023-12-21T13:55:57.429Z,9.51
2023-12-21T13:58:25.164Z,9.51
2023-12-21T14:00:52.935Z,9.51
2023-12-21T14:03:20.703Z,9.49
2023-12-21T14:05:48.523Z,9.47
2023-12-21T14:08:16.223Z,9.44
2023-12-21T14:10:43.971Z,9.43
2023-12-21T14:13:11.623Z,9.42
2023-12-21T14:15:40.577Z,9.41
2023-12-21T14:18:08.327Z,9.41
2023-12-21T14:20:35.975Z,9.40
2023-12-21T14:23:03.596Z,9.40
2023-12-21T14:25:31.213Z,9.40
2023-12-21T14:28:00.367Z,9.41
2023-12-21T14:30:28.139Z,9.43
2023-12-21T14:32:55.919Z,9.42
2023-12-21T14:35:23.789Z,9.42
2023-12-21T14:37:53.188Z,9.41
2023-12-21T14:40:21.101Z,9.42
2023-12-21T14:42:48.833Z,9.41
2023-12-21T14:45:16.459Z,9.43
2023-12-21T14:47:44.142Z,9.42
2023-12-21T14:50:11.730Z,9.41
2023-12-21T14:52:39.836Z,9.42
2023-12-21T14:55:07.926Z,9.43
2023-12-21T14:57:35.617Z,9.44
2023-12-21T15:00:04.224Z,9.39
2023-12-21T15:02:31.854Z,9.37
2023-12-21T15:04:59.550Z,9.39
2023-12-21T15:07:27.790Z,9.41
2023-12-21T15:09:55.880Z,9.36
2023-12-21T15:12:23.453Z,9.40
2023-12-21T15:14:51.121Z,9.36
2023-12-21T15:17:18.707Z,9.37
2023-12-21T15:19:46.450Z,9.34
2023-12-21T15:22:14.336Z,9.35
2023-12-21T15:24:41.967Z,9.35
2023-12-21T15:27:09.617Z,9.35
2023-12-21T15:29:37.717Z,9.36
2023-12-21T15:32:05.526Z,9.36
2023-12-21T15:34:35.967Z,9.35
2023-12-21T15:37:03.864Z,9.37
2023-12-21T15:39:31.515Z,9.37
2023-12-21T15:41:59.445Z,9.42
2023-12-21T15:44:27.134Z,9.43
2023-12-21T15:46:54.927Z,9.45
2023-12-21T15:49:23.131Z,9.45
2023-12-21T15:51:51.098Z,9.45
2023-12-21T15:54:18.800Z,9.46
2023-12-21T15:56:46.873Z,9.46
2023-12-21T15:59:15.002Z,9.45
2023-12-21T16:01:42.875Z,9.44
2023-12-21T16:04:10.735Z,9.35
2023-12-21T16:06:38.517Z,9.32
2023-12-21T16:09:06.361Z,9.35
2023-12-21T16:11:35.328Z,9.34
2023-12-21T16:14:03.155Z,9.32
2023-12-21T16:16:30.954Z,9.28
2023-12-21T16:18:58.695Z,9.22
2023-12-21T16:21:26.326Z,9.16
2023-12-21T16:23:53.966Z,9.07
2023-12-21T16:26:21.610Z,9.00
2023-12-21T16:28:49.426Z,8.88
2023-12-21T16:31:17.216Z,8.80
2023-12-21T16:33:44.987Z,8.74
2023-12-21T16:36:12.669Z,8.67
2023-12-21T16:38:41.702Z,8.61
2023-12-21T16:41:09.355Z,8.56
2023-12-21T16:43:37.994Z,8.48
2023-12-21T16:46:06.765Z,8.41
2023-12-21T16:48:34.487Z,8.35
2023-12-21T16:51:02.119Z,8.29
2023-12-21T16:53:30.749Z,8.20
2023-12-21T16:55:58.653Z,8.17
2023-12-21T16:58:27.326Z,8.15
2023-12-21T17:00:55.097Z,8.16
2023-12-21T17:03:22.807Z,8.21
2023-12-21T17:05:50.606Z,8.24
2023-12-21T17:08:18.321Z,8.28
2023-12-21T17:10:46.017Z,8.28
2023-12-21T17:13:13.848Z,8.31
2023-12-21T17:15:44.221Z,8.20
2023-12-21T17:18:12.143Z,8.14
2023-12-21T17:20:39.902Z,8.05
2023-12-21T17:23:08.985Z,7.94
2023-12-21T17:25:39.429Z,7.78
2023-12-21T17:28:10.614Z,7.68
2023-12-21T17:30:39.391Z,7.59
2023-12-21T17:33:07.457Z,7.50
2023-12-21T17:35:35.170Z,7.41
2023-12-21T17:38:03.424Z,7.33
2023-12-21T17:40:31.093Z,7.22
2023-12-21T17:42:58.737Z,7.10
2023-12-21T17:45:26.462Z,6.98
2023-12-21T17:47:54.161Z,6.87
2023-12-21T17:50:21.896Z,6.78
2023-12-21T17:52:50.665Z,6.70
2023-12-21T17:55:18.556Z,6.67
2023-12-21T17:57:46.548Z,6.68
2023-12-21T18:00:14.863Z,6.73
2023-12-21T18:02:42.499Z,6.79
2023-12-21T18:05:10.476Z,6.85
2023-12-21T18:07:38.268Z,6.91
2023-12-21T18:10:06.866Z,6.92
2023-12-21T18:12:34.443Z,6.93
2023-12-21T18:15:02.429Z,6.94
2023-12-21T18:17:30.313Z,7.00
2023-12-21T18:19:58.119Z,7.03
2023-12-21T18:22:26.895Z,7.02
2023-12-21T18:24:56.802Z,7.07
2023-12-21T18:27:24.356Z,7.11
2023-12-21T18:29:52.060Z,7.19
2023-12-21T18:32:19.813Z,7.29
2023-12-21T18:34:47.569Z,7.41
2023-12-21T18:37:15.473Z,7.47
2023-12-21T18:39:43.241Z,7.50
2023-12-21T18:42:11.192Z,7.52
2023-12-21T18:44:39.785Z,7.51
2023-12-21T18:47:07.459Z,7.47
2023-12-21T18:49:35.133Z,7.41
2023-12-21T18:52:03.073Z,7.33
2023-12-21T18:54:31.117Z,7.23
2023-12-21T18:56:59.356Z,7.13
2023-12-21T18:59:27.144Z,7.03
2023-12-21T19:01:55.141Z,6.95
2023-12-21T19:04:22.981Z,6.85
2023-12-21T19:06:50.777Z,6.75
2023-12-21T19:09:18.466Z,6.65
2023-12-21T19:11:46.158Z,6.59
2023-12-21T19:14:14.158Z,6.56
2023-12-21T19:16:45.127Z,6.51
2023-12-21T19:19:12.995Z,6.54
2023-12-21T19:21:47.406Z,6.59
2023-12-21T19:24:15.091Z,6.66
2023-12-21T19:26:42.789Z,6.71
2023-12-21T19:29:11.210Z,6.76
2023-12-21T19:31:39.227Z,6.80
2023-12-21T19:34:06.946Z,6.84
2023-12-21T19:36:34.670Z,6.87
2023-12-21T19:39:04.426Z,6.91
2023-12-21T19:41:32.161Z,6.96
2023-12-21T19:43:59.870Z,7.00
2023-12-21T19:46:27.636Z,7.01
2023-12-21T19:48:55.336Z,7.01
2023-12-21T19:51:25.218Z,6.97
2023-12-21T19:53:52.868Z,6.94
2023-12-21T19:56:20.956Z,6.97
2023-12-21T19:58:51.801Z,6.93
2023-12-21T20:01:19.696Z,6.86
2023-12-21T20:03:47.556Z,6.83
2023-12-21T20:06:15.481Z,6.82
2023-12-21T20:08:43.385Z,6.84
2023-12-21T20:11:11.058Z,6.87
2023-12-21T20:13:40.815Z,6.84
2023-12-21T20:16:14.999Z,6.88
2023-12-21T20:18:42.997Z,6.96
2023-12-21T20:21:12.184Z,7.00
2023-12-21T20:23:40.002Z,7.03
2023-12-21T20:26:07.756Z,7.05
2023-12-21T20:28:37.223Z,7.07
2023-12-21T20:31:05.131Z,7.10
2023-12-21T20:33:32.967Z,7.10
2023-12-21T20:36:00.687Z,7.11
2023-12-21T20:38:29.681Z,7.12
2023-12-21T20:40:58.285Z,7.13
2023-12-21T20:43:25.954Z,7.18
2023-12-21T20:45:53.717Z,7.23
2023-12-21T20:48:21.526Z,7.24
2023-12-21T20:50:49.219Z,7.27
2023-12-21T20:53:16.850Z,7.29
2023-12-21T20:55:44.625Z,7.29
2023-12-21T20:58:12.397Z,7.29
2023-12-21T21:00:40.078Z,7.28
2023-12-21T21:03:08.237Z,7.29
2023-12-21T21:05:35.951Z,7.30
2023-12-21T21:08:03.771Z,7.30
2023-12-21T21:10:31.618Z,7.32
2023-12-21T21:13:02.326Z,7.34
2023-12-21T21:15:30.062Z,7.36
2023-12-21T21:17:57.949Z,7.36
2023-12-21T21:20:25.563Z,7.37
2023-12-21T21:22:53.171Z,7.36
2023-12-21T21:25:20.901Z,7.35
2023-12-21T21:27:48.693Z,7.37
2023-12-21T21:30:54.311Z,7.40
2023-12-21T21:33:06.228Z,7.40
2023-12-21T21:35:33.953Z,7.38
2023-12-21T21:38:01.798Z,7.40
2023-12-21T21:40:29.644Z,7.42
2023-12-21T21:42:57.231Z,7.43
2023-12-21T21:45:24.870Z,7.45
2023-12-21T21:47:52.823Z,7.45
2023-12-21T21:50:20.629Z,7.36
2023-12-21T21:52:49.325Z,7.34
2023-12-21T21:55:17.038Z,7.34
2023-12-21T21:57:44.627Z,7.34
2023-12-21T22:00:12.863Z,7.32
2023-12-21T22:02:40.493Z,7.31
2023-12-21T22:05:08.281Z,7.31
2023-12-21T22:07:38.689Z,7.27
2023-12-21T22:10:06.641Z,7.26
2023-12-21T22:12:34.173Z,7.25
2023-12-21T22:15:01.695Z,7.24
2023-12-21T22:17:29.344Z,7.23
2023-12-21T22:19:56.951Z,7.22
2023-12-21T22:22:24.583Z,7.20
2023-12-21T22:24:52.199Z,7.23
2023-12-21T22:27:19.759Z,7.25
2023-12-21T22:29:49.126Z,7.25
2023-12-21T22:32:18.644Z,7.25
2023-12-21T22:34:47.771Z,7.24
2023-12-21T22:37:18.696Z,7.24
2023-12-21T22:39:46.760Z,7.23
2023-12-21T22:42:16.556Z,7.23
2023-12-21T22:44:44.099Z,7.26
2023-12-21T22:47:11.755Z,7.27
2023-12-21T22:49:40.090Z,7.26
2023-12-21T22:52:07.718Z,7.24
2023-12-21T22:54:36.558Z,7.25
2023-12-21T22:57:04.455Z,7.24
2023-12-21T22:59:32.153Z,7.26
2023-12-21T23:01:59.798Z,7.29
2023-12-21T23:04:27.448Z,7.28
2023-12-21T23:06:55.114Z,7.29
2023-12-21T23:09:24.075Z,7.30
2023-12-21T23:11:51.629Z,7.30
2023-12-21T23:14:19.155Z,7.32
2023-12-21T23:16:46.779Z,7.32
2023-12-21T23:19:14.414Z,7.27
2023-12-21T23:21:42.011Z,7.21
2023-12-21T23:24:09.772Z,7.18
2023-12-21T23:26:37.356Z,7.09
2023-12-21T23:29:04.983Z,6.95
2023-12-21T23:31:32.689Z,6.86
2023-12-21T23:34:00.410Z,6.80
2023-12-21T23:36:28.030Z,6.80
2023-12-21T23:38:55.630Z,6.81
2023-12-21T23:41:23.603Z,6.84
2023-12-21T23:43:51.167Z,6.85
2023-12-21T23:46:18.862Z,6.86
2023-12-21T23:48:48.567Z,6.89
2023-12-21T23:51:16.351Z,6.90
2023-12-21T23:53:43.936Z,6.91
2023-12-21T23:56:11.441Z,6.92
2023-12-21T23:58:39.071Z,6.93
